Time;durP1;ratioP1;P1;durP2;ratioP2;P2;SDS_P1;SDS_P2;PMS_P1;PMS_P2;Temp;Humidity;BMP_temperature;BMP_pressure;BME280_temperature;BME280_humidity;BME280_pressure;Samples;Min_cycle;Max_cycle;Signal;HPM_P1;HPM_P2
2023/04/04 00:00:29;;;;;;;0.75;0.55;;;;;;;-2.17;86.70;101788.56;10522175;28;20527;-77
2023/04/04 00:05:34;;;;;;;0.90;0.60;;;;;;;-2.20;86.71;101783.53;10506660;28;20044;-78
2023/04/04 00:10:43;;;;;;;2.60;0.65;;;;;;;-2.17;86.63;101793.94;10549814;28;20408;-78
2023/04/04 00:15:47;;;;;;;2.65;0.50;;;;;;;-2.20;87.14;101782.69;10534744;28;20123;-77
2023/04/04 00:20:51;;;;;;;1.42;0.65;;;;;;;-2.17;87.07;101776.97;10541966;28;20047;-77
2023/04/04 00:25:53;;;;;;;2.83;0.60;;;;;;;-2.20;86.96;101786.22;10542968;28;20036;-77
2023/04/04 00:30:55;;;;;;;2.75;0.80;;;;;;;-2.23;86.95;101757.00;10531262;28;20037;-76
2023/04/04 00:35:58;;;;;;;0.95;0.60;;;;;;;-2.24;87.30;101765.22;10511320;28;20134;-77
2023/04/04 00:41:00;;;;;;;0.55;0.50;;;;;;;-2.27;87.32;101771.75;10517169;28;20044;-77
2023/04/04 00:46:02;;;;;;;1.75;0.82;;;;;;;-2.23;87.55;101769.59;10510813;28;20051;-78
2023/04/04 00:51:05;;;;;;;1.77;0.57;;;;;;;-2.26;87.40;101767.22;10523943;28;20508;-76
2023/04/04 00:56:08;;;;;;;2.20;0.70;;;;;;;-2.32;87.64;101765.22;10510392;28;20044;-77
2023/04/04 01:01:10;;;;;;;2.05;0.70;;;;;;;-2.35;87.80;101760.19;10529229;28;20139;-77
2023/04/04 01:06:13;;;;;;;2.50;0.80;;;;;;;-2.32;88.03;101762.53;10510513;28;20044;-77
2023/04/04 01:11:15;;;;;;;1.45;0.68;;;;;;;-2.35;87.95;101765.56;10493238;28;20040;-77
2023/04/04 01:16:18;;;;;;;2.95;0.70;;;;;;;-2.33;88.03;101758.16;10528309;28;20500;-77
2023/04/04 01:21:21;;;;;;;1.30;0.70;;;;;;;-2.38;87.66;101758.69;10511392;28;20048;-76
2023/04/04 01:26:25;;;;;;;1.95;0.80;;;;;;;-2.41;88.16;101753.66;10501686;28;20036;-77
2023/04/04 01:31:36;;;;;;;2.20;0.70;;;;;;;-2.45;88.54;101744.22;10496865;28;20047;-77
2023/04/04 01:36:48;;;;;;;1.95;1.00;;;;;;;-2.44;88.59;101745.88;10534547;28;20052;-77
2023/04/04 01:41:50;;;;;;;0.77;0.57;;;;;;;-2.39;88.70;101742.72;10547109;28;20048;-77
2023/04/04 01:46:53;;;;;;;1.23;0.70;;;;;;;-2.40;88.81;101743.72;10521794;28;20051;-77
2023/04/04 01:51:56;;;;;;;0.85;0.68;;;;;;;-2.40;88.91;101741.03;10523177;28;20044;-76
2023/04/04 01:56:59;;;;;;;3.25;1.00;;;;;;;-2.47;89.28;101740.84;10540344;28;20143;-76
2023/04/04 02:02:02;;;;;;;0.93;0.70;;;;;;;-2.44;89.40;101727.06;10523825;28;20412;-76
2023/04/04 02:07:04;;;;;;;1.42;0.47;;;;;;;-2.47;89.43;101732.78;10509741;28;20052;-76
2023/04/04 02:12:07;;;;;;;1.05;0.60;;;;;;;-2.49;89.70;101730.28;10540895;28;20048;-77
2023/04/04 02:17:09;;;;;;;3.40;0.80;;;;;;;-2.49;89.76;101730.28;10525975;28;20044;-76
2023/04/04 02:22:12;;;;;;;2.40;0.90;;;;;;;-2.53;89.59;101723.56;10507384;28;20043;-77
2023/04/04 02:27:14;;;;;;;1.35;0.50;;;;;;;-2.43;90.05;101720.69;10523712;28;20044;-78
2023/04/04 02:32:17;;;;;;;1.50;0.80;;;;;;;-2.39;89.69;101710.47;10526127;28;20055;-77
2023/04/04 02:37:19;;;;;;;0.88;0.60;;;;;;;-2.43;89.37;101726.06;10524858;28;20142;-77
2023/04/04 02:42:23;;;;;;;1.05;0.63;;;;;;;-2.43;89.11;101734.13;10507553;28;20048;-76
2023/04/04 02:47:26;;;;;;;3.13;0.90;;;;;;;-2.44;89.37;101717.16;10515295;28;20041;-76
2023/04/04 02:52:28;;;;;;;2.15;0.77;;;;;;;-2.50;89.94;101727.75;10499405;28;20064;-76
2023/04/04 02:57:34;;;;;;;1.60;0.80;;;;;;;-2.47;89.92;101722.88;10506185;28;20045;-77
2023/04/04 03:02:36;;;;;;;2.28;0.65;;;;;;;-2.49;89.62;101719.53;10507505;28;20040;-77
2023/04/04 03:07:39;;;;;;;1.00;0.63;;;;;;;-2.48;89.55;101715.00;10514934;28;20048;-77
2023/04/04 03:12:41;;;;;;;2.40;0.85;;;;;;;-2.50;89.65;101717.84;10510963;28;20064;-78
2023/04/04 03:17:44;;;;;;;0.40;0.40;;;;;;;-2.50;89.87;101711.66;10528501;28;20040;-76
2023/04/04 03:22:46;;;;;;;0.85;0.57;;;;;;;-2.50;89.30;101714.31;10488286;28;20051;-76
2023/04/04 03:27:49;;;;;;;4.35;0.73;;;;;;;-2.50;89.65;101717.03;10488278;28;20044;-77
2023/04/04 03:33:07;;;;;;;0.82;0.60;;;;;;;-2.47;89.60;101716.66;10456876;28;20045;-76
2023/04/04 03:38:10;;;;;;;0.70;0.60;;;;;;;-2.44;89.75;101710.94;10518323;28;20659;-76
2023/04/04 03:43:12;;;;;;;1.95;0.80;;;;;;;-2.38;89.28;101712.97;10516760;28;20040;-77
2023/04/04 03:48:17;;;;;;;0.85;0.57;;;;;;;-2.44;89.46;101716.31;10499623;28;20033;-76
2023/04/04 03:53:19;;;;;;;1.80;0.63;;;;;;;-2.47;89.70;101716.66;10525247;28;20059;-77
2023/04/04 03:58:22;;;;;;;1.10;0.35;;;;;;;-2.42;89.57;101702.75;10514958;28;20417;-77
2023/04/04 04:03:26;;;;;;;0.60;0.50;;;;;;;-2.42;89.32;101703.59;10545588;28;20047;-77
2023/04/04 04:08:28;;;;;;;0.77;0.57;;;;;;;-2.40;89.36;101704.25;10554023;28;20044;-78
2023/04/04 04:13:30;;;;;;;0.50;0.30;;;;;;;-2.33;89.30;101701.72;10503528;28;20519;-78
2023/04/04 04:18:33;;;;;;;2.20;0.50;;;;;;;-2.30;88.75;101691.44;10487923;28;20037;-77
2023/04/04 04:23:35;;;;;;;1.20;0.50;;;;;;;-2.30;89.16;101701.38;10524905;28;20036;-77
2023/04/04 04:28:37;;;;;;;0.90;0.47;;;;;;;-2.26;89.15;101692.78;10521102;28;20047;-79
2023/04/04 04:33:45;;;;;;;0.10;0.10;;;;;;;-2.23;88.92;101691.63;10511798;28;20435;-76
2023/04/04 04:38:48;;;;;;;2.00;0.50;;;;;;;-2.20;88.97;101694.81;10512119;28;20083;-77
2023/04/04 04:43:51;;;;;;;1.35;0.43;;;;;;;-2.15;88.44;101684.34;10491965;28;20036;-76
2023/04/04 04:48:53;;;;;;;0.68;0.40;;;;;;;-2.11;88.55;101679.47;10464300;28;20492;-76
2023/04/04 04:54:01;;;;;;;1.35;0.52;;;;;;;-2.04;88.09;101676.94;10469884;28;20048;-76
2023/04/04 04:59:06;;;;;;;1.15;0.70;;;;;;;-2.02;87.87;101678.44;10504156;28;20040;-77
2023/04/04 05:04:08;;;;;;;0.93;0.55;;;;;;;-1.88;88.02;101676.88;10507464;28;20043;-76
2023/04/04 05:09:28;;;;;;;1.15;0.70;;;;;;;-1.68;87.12;101675.44;10510677;28;20040;-78
2023/04/04 05:14:30;;;;;;;0.60;0.60;;;;;;;-1.63;86.99;101667.69;10492118;28;20040;-77
2023/04/04 05:19:33;;;;;;;1.38;0.60;;;;;;;-1.66;86.26;101667.19;10491468;28;20045;-77
2023/04/04 05:24:37;;;;;;;1.27;0.80;;;;;;;-1.68;86.19;101672.75;10474327;28;20067;-76
2023/04/04 05:29:41;;;;;;;0.88;0.77;;;;;;;-1.66;86.61;101668.03;10498296;28;20037;-78
2023/04/04 05:34:43;;;;;;;1.90;0.75;;;;;;;-1.63;85.78;101667.69;10467186;28;20045;-77
2023/04/04 05:39:50;;;;;;;0.98;0.70;;;;;;;-1.59;86.03;101658.22;10516427;28;20047;-78
2023/04/04 05:44:56;;;;;;;0.60;0.50;;;;;;;-1.49;86.18;101667.94;10516041;28;20036;-78
2023/04/04 05:50:06;;;;;;;1.17;0.70;;;;;;;-1.41;85.50;101665.19;10440663;28;20403;-77
2023/04/04 05:55:12;;;;;;;1.17;0.90;;;;;;;-1.10;85.39;101666.00;10515709;28;20451;-77
2023/04/04 06:00:16;;;;;;;2.50;1.00;;;;;;;-0.88;84.67;101658.09;10546433;28;20048;-76
2023/04/04 06:05:22;;;;;;;1.65;0.95;;;;;;;-0.89;83.19;101659.09;10570092;28;20067;-77
2023/04/04 06:10:24;;;;;;;2.58;1.30;;;;;;;-0.80;82.99;101660.72;10539697;28;20036;-76
2023/04/04 06:15:32;;;;;;;0.80;0.80;;;;;;;-1.05;82.25;101650.13;10474534;28;20082;-76
2023/04/04 06:20:34;;;;;;;0.70;0.70;;;;;;;-1.02;82.12;101659.75;10458258;28;20056;-77
2023/04/04 06:25:36;;;;;;;0.47;0.47;;;;;;;-1.12;81.55;101654.56;10521675;28;20040;-76
2023/04/04 06:30:39;;;;;;;1.95;0.52;;;;;;;-1.23;81.82;101660.38;10573761;28;20051;-77
2023/04/04 06:35:43;;;;;;;0.57;0.55;;;;;;;-1.24;81.50;101658.69;10555741;28;20090;-78
2023/04/04 06:40:46;;;;;;;0.50;0.50;;;;;;;-1.16;82.03;101650.56;10557110;28;20051;-78
2023/04/04 06:45:49;;;;;;;0.73;0.57;;;;;;;-1.02;81.45;101651.66;10493793;28;20044;-77
2023/04/04 06:50:58;;;;;;;1.55;0.38;;;;;;;-1.00;81.53;101631.59;10535231;28;20052;-78
2023/04/04 06:56:03;;;;;;;0.90;0.40;;;;;;;-1.04;80.75;101643.75;10541011;28;20048;-77
2023/04/04 07:01:05;;;;;;;0.70;0.70;;;;;;;-0.98;81.05;101644.88;10499972;28;20040;-77
2023/04/04 07:06:10;;;;;;;0.82;0.60;;;;;;;-0.80;81.01;101639.19;10558587;28;20591;-77
2023/04/04 07:11:13;;;;;;;0.40;0.40;;;;;;;-0.87;80.82;101641.75;10541802;28;20047;-77
2023/04/04 07:16:15;;;;;;;0.43;0.43;;;;;;;-0.80;81.20;101639.19;10568388;28;20040;-78
2023/04/04 07:21:17;;;;;;;1.08;0.30;;;;;;;-0.69;80.11;101638.75;10536171;28;20044;-77
2023/04/04 07:26:22;;;;;;;1.38;0.40;;;;;;;-0.72;79.93;101655.25;10533440;28;20036;-77
2023/04/04 07:31:24;;;;;;;0.70;0.50;;;;;;;-0.63;80.20;101644.22;10532960;28;20040;-77
2023/04/04 07:36:27;;;;;;;0.98;0.47;;;;;;;-0.43;79.49;101644.53;10532247;28;20048;-79
2023/04/04 07:41:29;;;;;;;0.90;0.80;;;;;;;-0.34;79.15;101658.78;10531050;28;20075;-77
2023/04/04 07:46:31;;;;;;;0.60;0.40;;;;;;;-0.44;78.82;101648.25;10530389;28;20419;-78
2023/04/04 07:51:35;;;;;;;1.52;0.73;;;;;;;-0.33;79.56;101650.50;10538930;28;20056;-79
2023/04/04 07:56:38;;;;;;;1.15;0.75;;;;;;;-0.09;79.18;101651.25;10548503;28;20043;-78
2023/04/04 08:01:40;;;;;;;0.73;0.50;;;;;;;0.04;78.63;101647.91;10513742;28;20044;-77
2023/04/04 08:06:42;;;;;;;0.40;0.30;;;;;;;0.05;78.10;101654.97;10554844;28;20040;-79
2023/04/04 08:11:44;;;;;;;0.17;0.13;;;;;;;0.15;77.14;101664.44;10530893;28;20520;-78
2023/04/04 08:16:46;;;;;;;0.45;0.45;;;;;;;0.10;76.90;101658.78;10532507;28;20036;-78
2023/04/04 08:21:49;;;;;;;1.55;0.50;;;;;;;0.28;77.22;101663.78;10543027;28;20045;-77
2023/04/04 08:26:51;;;;;;;0.70;0.43;;;;;;;0.38;76.70;101660.78;10529455;28;20051;-77
2023/04/04 08:31:53;;;;;;;0.30;0.30;;;;;;;0.14;76.32;101662.75;10470049;28;20131;-78
2023/04/04 08:36:59;;;;;;;0.98;0.70;;;;;;;0.27;76.84;101662.09;10486933;28;20041;-77
2023/04/04 08:42:05;;;;;;;0.73;0.60;;;;;;;0.39;76.65;101670.56;10453411;28;20407;-78
2023/04/04 08:47:11;;;;;;;0.73;0.50;;;;;;;0.22;77.04;101675.34;10447144;28;20091;-77
2023/04/04 08:52:14;;;;;;;0.60;0.40;;;;;;;0.15;76.69;101675.22;10487338;28;20041;-76
2023/04/04 08:57:22;;;;;;;0.73;0.40;;;;;;;0.15;76.70;101669.81;10488680;28;20033;-78
2023/04/04 09:02:39;;;;;;;0.40;0.40;;;;;;;0.32;77.31;101670.47;10470761;28;20044;-76
2023/04/04 09:07:42;;;;;;;0.57;0.50;;;;;;;0.24;76.90;101662.47;10468217;28;20056;-76
2023/04/04 09:12:52;;;;;;;0.40;0.40;;;;;;;0.28;76.58;101670.00;10487168;28;20516;-77
2023/04/04 09:17:56;;;;;;;0.68;0.50;;;;;;;0.21;76.47;101662.88;10469094;28;20037;-76
2023/04/04 09:22:58;;;;;;;0.50;0.50;;;;;;;0.23;76.61;101672.44;10516883;28;20048;-77
2023/04/04 09:28:03;;;;;;;0.25;0.25;;;;;;;0.30;76.37;101670.66;10507432;28;20044;-77
2023/04/04 09:33:11;;;;;;;0.70;0.60;;;;;;;0.45;75.85;101659.00;10528089;28;20056;-77
2023/04/04 09:38:16;;;;;;;0.20;0.20;;;;;;;0.76;75.46;101666.84;10510836;28;20037;-77
2023/04/04 09:43:21;;;;;;;0.30;0.30;;;;;;;0.57;74.34;101671.00;10527693;28;20417;-76
2023/04/04 09:48:26;;;;;;;1.95;0.43;;;;;;;0.65;74.85;101673.56;10510791;28;20037;-77
2023/04/04 09:53:31;;;;;;;0.80;0.50;;;;;;;0.88;74.69;101671.56;10515415;28;20048;-77
2023/04/04 09:58:35;;;;;;;0.08;0.08;;;;;;;0.75;74.49;101671.41;10500295;28;20055;-77
2023/04/04 10:03:42;;;;;;;;;;;;;;;0.77;75.04;101663.94;10544220;28;20415;-77
2023/04/04 10:08:45;;;;;;;0.98;0.60;;;;;;;0.93;74.68;101668.25;10526474;28;19924;-77
2023/04/04 10:13:51;;;;;;;0.32;0.20;;;;;;;0.76;74.58;101677.63;10527914;28;20071;-78
2023/04/04 10:18:57;;;;;;;1.00;0.80;;;;;;;0.70;75.32;101690.06;10550084;28;20044;-77
2023/04/04 10:24:02;;;;;;;1.15;0.40;;;;;;;0.77;74.97;101690.13;10572118;28;20044;-76
2023/04/04 10:29:04;;;;;;;3.42;1.00;;;;;;;0.88;75.33;101682.34;10534736;28;20067;-79
2023/04/04 10:34:21;;;;;;;1.45;0.50;;;;;;;1.10;74.65;101698.56;10533711;28;20051;-80
2023/04/04 10:39:32;;;;;;;0.40;0.40;;;;;;;0.85;74.67;101690.81;10533567;28;20067;-77
2023/04/04 10:44:38;;;;;;;1.38;0.55;;;;;;;0.99;74.79;101688.25;10517786;28;20048;-77
2023/04/04 10:49:44;;;;;;;0.88;0.88;;;;;;;1.05;74.15;101682.09;10535618;28;20252;-78
2023/04/04 10:54:53;;;;;;;1.20;0.70;;;;;;;0.82;74.09;101693.91;10536216;28;20062;-78
2023/04/04 11:00:07;;;;;;;1.17;0.90;;;;;;;0.77;73.64;101690.94;10518035;28;20044;-78
2023/04/04 11:05:11;;;;;;;2.53;0.70;;;;;;;0.97;73.76;101693.03;10519094;28;20048;-77
2023/04/04 11:10:28;;;;;;;0.68;0.30;;;;;;;0.76;73.31;101693.84;10513470;28;20036;-78
2023/04/04 11:15:52;;;;;;;2.25;0.57;;;;;;;0.78;73.32;101698.03;10501762;28;20043;-78
2023/04/04 11:20:54;;;;;;;1.73;0.68;;;;;;;0.85;73.21;101696.22;10539367;28;20048;-77
2023/04/04 11:25:59;;;;;;;2.40;0.85;;;;;;;0.83;73.09;101690.19;10480196;28;20484;-77
2023/04/04 11:31:17;;;;;;;1.85;0.90;;;;;;;0.83;73.73;101700.97;10555800;28;20136;-77
2023/04/04 11:36:41;;;;;;;1.63;0.90;;;;;;;0.69;74.00;101699.16;10504710;28;20045;-77
2023/04/04 11:42:09;;;;;;;1.27;0.88;;;;;;;0.83;74.59;101711.78;10510745;28;20047;-77
2023/04/04 11:47:13;;;;;;;1.35;0.73;;;;;;;0.66;73.72;101714.91;10535263;28;20040;-80
2023/04/04 11:52:18;;;;;;;1.45;0.90;;;;;;;0.70;74.34;101698.16;10560340;28;20056;-79
2023/04/04 11:57:21;;;;;;;0.57;0.50;;;;;;;0.68;73.92;101696.66;10553604;28;20040;-78
2023/04/04 12:02:33;;;;;;;0.32;0.17;;;;;;;0.46;74.57;101714.66;10530161;28;20054;-78
2023/04/04 12:07:36;;;;;;;1.10;0.73;;;;;;;0.52;74.49;101703.97;10538231;28;20044;-78
2023/04/04 12:12:38;;;;;;;1.27;0.90;;;;;;;0.70;74.50;101684.66;10571756;28;20071;-78
2023/04/04 12:17:42;;;;;;;0.55;0.50;;;;;;;0.72;73.97;101704.22;10526582;28;20041;-78
2023/04/04 12:22:48;;;;;;;1.10;1.00;;;;;;;0.54;74.37;101709.19;10530832;28;20082;-77
2023/04/04 12:27:52;;;;;;;0.43;0.43;;;;;;;0.61;73.81;101704.69;10523434;28;20380;-79
2023/04/04 12:32:57;;;;;;;1.70;0.70;;;;;;;0.54;73.74;101685.72;10501720;28;20045;-78
2023/04/04 12:38:02;;;;;;;0.75;0.40;;;;;;;0.49;74.13;101690.00;10519749;28;20041;-82
2023/04/04 12:43:08;;;;;;;0.57;0.40;;;;;;;0.47;74.09;101700.16;10475725;28;20040;-78
2023/04/04 12:48:14;;;;;;;0.60;0.52;;;;;;;0.37;73.75;101699.63;10503037;28;20076;-79
2023/04/04 12:53:25;;;;;;;1.20;0.77;;;;;;;0.20;74.80;101702.50;10529992;28;20120;-78
2023/04/04 12:58:27;;;;;;;0.50;0.50;;;;;;;0.16;74.83;101714.69;10533171;28;20139;-78
2023/04/04 13:03:36;;;;;;;0.20;0.20;;;;;;;0.13;75.28;101704.28;10518093;28;20135;-80
2023/04/04 13:08:48;;;;;;;0.73;0.20;;;;;;;0.11;75.36;101706.31;10468269;28;20508;-78
2023/04/04 13:14:01;;;;;;;1.45;0.85;;;;;;;0.15;75.27;101706.78;10527084;28;20408;-79
2023/04/04 13:19:11;;;;;;;2.45;0.98;;;;;;;0.10;75.12;101706.50;10515758;28;20090;-78
2023/04/04 13:24:16;;;;;;;0.68;0.65;;;;;;;0.23;74.92;101704.00;10537603;28;20552;-80
2023/04/04 13:29:22;;;;;;;1.33;0.50;;;;;;;0.18;75.44;101707.28;10523507;28;20483;-79
2023/04/04 13:34:26;;;;;;;1.45;0.90;;;;;;;0.25;75.54;101710.88;10522397;28;20117;-78
2023/04/04 13:39:35;;;;;;;0.88;0.60;;;;;;;0.12;75.71;101708.00;10515038;28;20128;-78
2023/04/04 13:44:38;;;;;;;0.98;0.60;;;;;;;0.05;75.73;101701.69;10546057;28;20415;-80
2023/04/04 13:49:43;;;;;;;0.82;0.60;;;;;;;0.10;76.31;101696.56;10455549;28;20393;-77
2023/04/04 13:54:45;;;;;;;0.30;0.30;;;;;;;0.06;76.39;101692.56;10504763;28;20064;-77
2023/04/04 13:59:47;;;;;;;2.10;0.70;;;;;;;0.03;76.49;101692.94;10483754;28;20045;-79
2023/04/04 14:04:53;;;;;;;1.08;0.57;;;;;;;0.02;76.95;101690.44;10528508;28;20048;-79
2023/04/04 14:09:55;;;;;;;0.82;0.63;;;;;;;0.10;77.00;101701.13;10527570;28;20448;-78
2023/04/04 14:14:58;;;;;;;1.67;1.10;;;;;;;0.09;77.30;101705.66;10492283;28;20511;-79
2023/04/04 14:20:04;;;;;;;0.38;0.38;;;;;;;0.09;77.11;101711.06;10495607;28;20041;-79
2023/04/04 14:25:07;;;;;;;1.83;0.73;;;;;;;0.09;77.37;101713.78;10529467;28;20403;-78
2023/04/04 14:30:27;;;;;;;1.25;0.70;;;;;;;0.11;76.77;101717.13;10488914;28;20048;-79
2023/04/04 14:35:29;;;;;;;1.10;0.90;;;;;;;-0.02;77.04;101712.34;10504392;28;20055;-77
2023/04/04 14:40:32;;;;;;;0.60;0.60;;;;;;;-0.02;77.29;101708.81;10506182;28;20037;-76
2023/04/04 14:45:35;;;;;;;1.85;0.80;;;;;;;-0.03;77.21;101715.25;10476412;28;20036;-78
2023/04/04 14:50:41;;;;;;;1.85;0.95;;;;;;;-0.03;77.36;101701.75;10505879;28;20029;-79
2023/04/04 14:55:47;;;;;;;1.20;0.77;;;;;;;0.02;77.88;101707.44;10472150;28;20047;-78
2023/04/04 15:00:50;;;;;;;1.23;0.52;;;;;;;0.08;77.98;101706.69;10478931;28;20042;-78
2023/04/04 15:05:53;;;;;;;5.57;0.73;;;;;;;0.03;78.08;101711.00;10460029;28;20151;-81
2023/04/04 15:10:55;;;;;;;0.68;0.35;;;;;;;0.06;78.16;101702.50;10501898;28;20054;-78
2023/04/04 15:16:00;;;;;;;0.45;0.45;;;;;;;0.19;78.46;101703.53;10502484;28;20043;-78
2023/04/04 15:21:03;;;;;;;0.32;0.32;;;;;;;0.09;78.78;101705.66;10478474;28;20049;-79
2023/04/04 15:26:05;;;;;;;1.30;0.98;;;;;;;0.05;78.52;101707.06;10469915;28;20037;-78
2023/04/04 15:31:07;;;;;;;1.02;0.70;;;;;;;0.03;78.36;101698.34;10471515;28;20049;-78
2023/04/04 15:36:10;;;;;;;0.95;0.68;;;;;;;0.04;79.16;101705.41;10488784;28;20045;-78
2023/04/04 15:41:12;;;;;;;1.55;0.85;;;;;;;0.02;79.32;101706.63;10482476;28;20398;-77
2023/04/04 15:46:15;;;;;;;0.32;0.32;;;;;;;-0.02;79.51;101711.53;10470854;28;20048;-77
2023/04/04 15:51:19;;;;;;;1.75;0.93;;;;;;;0.02;80.10;101715.53;10475380;28;20106;-79
2023/04/04 15:56:22;;;;;;;1.98;0.80;;;;;;;0.11;80.53;101722.50;10523528;28;20063;-78
2023/04/04 16:01:25;;;;;;;0.50;0.50;;;;;;;0.01;80.92;101715.72;10510862;28;20126;-78
2023/04/04 16:06:30;;;;;;;0.57;0.47;;;;;;;-0.10;81.09;101712.47;10565014;28;20133;-77
2023/04/04 16:11:32;;;;;;;1.52;0.65;;;;;;;-0.11;82.04;101720.75;10543706;28;20044;-78
2023/04/04 16:16:35;;;;;;;1.25;0.70;;;;;;;-0.13;81.66;101712.00;10499791;28;20049;-78
2023/04/04 16:21:37;;;;;;;0.47;0.25;;;;;;;-0.18;82.55;101712.53;10521921;28;20036;-78
2023/04/04 16:26:45;;;;;;;2.03;0.82;;;;;;;-0.26;83.36;101717.19;10524989;28;20055;-78
2023/04/04 16:31:51;;;;;;;0.57;0.50;;;;;;;-0.21;83.15;101725.56;10522464;28;20032;-78
2023/04/04 16:36:54;;;;;;;1.33;0.70;;;;;;;-0.35;83.91;101728.06;10506816;28;20045;-77
2023/04/04 16:41:56;;;;;;;0.30;0.30;;;;;;;-0.34;84.17;101732.44;10525430;28;20040;-78
2023/04/04 16:46:58;;;;;;;1.40;0.55;;;;;;;-0.37;84.37;101727.38;10523252;28;20626;-78
2023/04/04 16:52:01;;;;;;;1.13;0.82;;;;;;;-0.31;84.70;101734.75;10525344;28;20377;-78
2023/04/04 16:57:04;;;;;;;0.10;0.10;;;;;;;-0.25;85.08;101735.03;10524421;28;20032;-78
2023/04/04 17:02:09;;;;;;;1.63;0.60;;;;;;;-0.26;84.85;101736.06;10526439;28;20040;-78
2023/04/04 17:07:11;;;;;;;3.55;0.95;;;;;;;-0.44;85.59;101736.41;10528013;28;20043;-77
2023/04/04 17:12:16;;;;;;;0.90;0.85;;;;;;;-0.46;86.24;101741.97;10553524;28;20060;-77
2023/04/04 17:17:19;;;;;;;0.80;0.60;;;;;;;-0.46;87.02;101738.44;10552075;28;20495;-78
2023/04/04 17:22:21;;;;;;;1.13;0.85;;;;;;;-0.50;87.60;101737.97;10517906;28;20051;-78
2023/04/04 17:27:23;;;;;;;0.60;0.40;;;;;;;-0.55;88.06;101745.75;10490487;28;20055;-79
2023/04/04 17:32:25;;;;;;;1.23;0.57;;;;;;;-0.60;88.93;101734.66;10556963;28;20028;-78
2023/04/04 17:37:29;;;;;;;1.45;0.95;;;;;;;-0.60;89.58;101729.28;10534032;28;20068;-77
2023/04/04 17:42:31;;;;;;;0.57;0.52;;;;;;;-0.54;90.27;101733.09;10547656;28;20040;-78
2023/04/04 17:47:34;;;;;;;1.20;0.60;;;;;;;-0.42;90.00;101727.09;10535495;28;20044;-78
2023/04/04 17:52:36;;;;;;;2.28;0.98;;;;;;;-0.49;90.74;101733.41;10516091;28;20056;-79
2023/04/04 17:57:43;;;;;;;1.08;0.82;;;;;;;-0.58;90.40;101723.69;10498179;28;20044;-78
2023/04/04 18:02:46;;;;;;;1.92;1.10;;;;;;;-0.55;90.77;101729.56;10488794;28;20044;-78
2023/04/04 18:07:48;;;;;;;0.63;0.63;;;;;;;-0.56;91.20;101735.97;10507176;28;20047;-79
2023/04/04 18:12:50;;;;;;;2.00;1.20;;;;;;;-0.57;91.50;101728.06;10489362;28;20493;-81
2023/04/04 18:17:53;;;;;;;2.05;1.17;;;;;;;-0.54;91.70;101717.75;10496857;28;20157;-80
2023/04/04 18:22:57;;;;;;;2.08;0.98;;;;;;;-0.54;92.28;101723.16;10549251;28;20044;-78
2023/04/04 18:28:00;;;;;;;1.83;1.15;;;;;;;-0.61;92.59;101722.22;10543439;28;20032;-78
2023/04/04 18:33:03;;;;;;;0.20;0.20;;;;;;;-0.54;93.03;101722.31;10502860;28;20032;-78
2023/04/04 18:38:06;;;;;;;1.38;0.90;;;;;;;-0.69;93.47;101741.16;10481530;28;20657;-77
2023/04/04 18:43:08;;;;;;;2.10;1.40;;;;;;;-0.69;93.92;101727.69;10488093;28;20413;-77
2023/04/04 18:48:11;;;;;;;0.50;0.47;;;;;;;-0.65;93.98;101737.06;10490659;28;20515;-78
2023/04/04 18:53:13;;;;;;;1.67;1.10;;;;;;;-0.73;94.37;101727.19;10518058;28;20067;-79
2023/04/04 18:58:16;;;;;;;1.30;1.05;;;;;;;-0.69;94.94;101731.22;10506476;28;20415;-80
2023/04/04 19:03:21;;;;;;;1.90;1.48;;;;;;;-0.66;95.00;101727.31;10496850;28;20044;-79
2023/04/04 19:08:49;;;;;;;1.55;0.93;;;;;;;-0.69;95.39;101735.78;10505178;28;20037;-80
2023/04/04 19:13:51;;;;;;;1.50;1.38;;;;;;;-0.71;95.75;101729.69;10513136;28;20439;-79
2023/04/04 19:18:53;;;;;;;3.10;1.10;;;;;;;-0.70;96.14;101736.75;10527841;28;20425;-81
2023/04/04 19:23:56;;;;;;;3.05;1.20;;;;;;;-0.68;96.81;101732.06;10515892;28;20051;-81
2023/04/04 19:28:58;;;;;;;3.85;1.50;;;;;;;-0.67;97.04;101731.88;10508404;28;20036;-80
2023/04/04 19:34:02;;;;;;;0.95;0.90;;;;;;;-0.67;97.47;101722.94;10534030;28;20037;-81
2023/04/04 19:39:17;;;;;;;1.15;0.93;;;;;;;-0.62;97.12;101726.75;10502350;28;20040;-80
2023/04/04 19:44:20;;;;;;;1.90;1.05;;;;;;;-0.61;98.04;101731.13;10482034;28;20492;-80
2023/04/04 19:49:26;;;;;;;4.78;1.20;;;;;;;-0.62;98.02;101736.72;10495542;28;20412;-80
2023/04/04 19:54:41;;;;;;;0.73;0.40;;;;;;;-0.64;98.28;101720.72;10532827;28;20052;-79
2023/04/04 19:59:56;;;;;;;2.75;1.50;;;;;;;-0.63;98.29;101738.56;10504061;28;20940;-79
2023/04/04 20:05:28;;;;;;;4.22;1.40;;;;;;;-0.55;98.68;101734.94;10511017;28;20401;-78
2023/04/04 20:10:38;;;;;;;0.63;0.45;;;;;;;-0.51;99.23;101732.75;10527163;28;20507;-79
2023/04/04 20:15:43;;;;;;;1.75;0.70;;;;;;;-0.55;99.33;101740.34;10517583;28;20056;-80
2023/04/04 20:20:52;;;;;;;1.48;0.95;;;;;;;-0.48;99.22;101738.63;10472361;28;20064;-80
2023/04/04 20:26:00;;;;;;;0.80;0.40;;;;;;;-0.46;99.74;101731.19;10476407;28;20059;-79
2023/04/04 20:31:08;;;;;;;1.85;1.23;;;;;;;-0.48;99.55;101735.94;10498268;28;20079;-79
2023/04/04 20:36:30;;;;;;;0.82;0.70;;;;;;;-0.48;99.35;101735.94;10516956;28;20424;-79
2023/04/04 20:41:33;;;;;;;3.90;1.33;;;;;;;-0.45;100.00;101735.56;10517986;28;20048;-78
2023/04/04 20:46:35;;;;;;;0.52;0.52;;;;;;;-0.42;100.00;101743.28;10502866;28;20044;-79
2023/04/04 20:51:40;;;;;;;4.00;1.35;;;;;;;-0.43;100.00;101744.28;10501923;28;20418;-82
2023/04/04 20:56:45;;;;;;;3.72;1.50;;;;;;;-0.52;100.00;101731.06;10489598;28;20036;-80
2023/04/04 21:01:47;;;;;;;0.93;0.63;;;;;;;-0.46;100.00;101733.03;10535758;28;20044;-80
2023/04/04 21:06:50;;;;;;;3.70;1.13;;;;;;;-0.39;100.00;101725.88;10467532;28;20053;-79
2023/04/04 21:11:52;;;;;;;0.35;0.35;;;;;;;-0.40;100.00;101735.84;10503640;28;20495;-79
2023/04/04 21:16:55;;;;;;;2.80;1.00;;;;;;;-0.37;100.00;101751.66;10510318;28;20052;-77
2023/04/04 21:22:00;;;;;;;1.40;0.52;;;;;;;-0.38;100.00;101747.28;10483288;28;20037;-79
2023/04/04 21:27:05;;;;;;;1.83;1.10;;;;;;;-0.45;100.00;101750.91;10514828;28;20043;-78
2023/04/04 21:32:08;;;;;;;2.03;1.20;;;;;;;-0.47;100.00;101759.16;10486459;28;20044;-78
2023/04/04 21:37:13;;;;;;;1.92;0.93;;;;;;;-0.41;100.00;101763.81;10516760;28;20044;-77
2023/04/04 21:42:17;;;;;;;0.50;0.50;;;;;;;-0.43;100.00;101765.88;10528917;28;20097;-77
2023/04/04 21:47:19;;;;;;;0.75;0.63;;;;;;;-0.33;100.00;101788.03;10512499;28;20036;-77
2023/04/04 21:52:21;;;;;;;2.85;1.60;;;;;;;-0.40;100.00;101788.94;10499701;28;20057;-77
2023/04/04 21:57:24;;;;;;;4.97;1.95;;;;;;;-0.31;100.00;101777.06;10499028;28;20408;-77
2023/04/04 22:02:26;;;;;;;3.45;1.60;;;;;;;-0.29;100.00;101779.59;10526026;28;20044;-78
2023/04/04 22:07:28;;;;;;;1.58;1.33;;;;;;;-0.26;100.00;101784.59;10513250;28;20047;-77
2023/04/04 22:12:32;;;;;;;3.65;1.45;;;;;;;-0.22;100.00;101780.53;10522549;28;20550;-78
2023/04/04 22:17:35;;;;;;;2.63;1.23;;;;;;;-0.24;100.00;101785.25;10509228;28;20049;-78
2023/04/04 22:22:42;;;;;;;1.95;1.23;;;;;;;-0.16;100.00;101796.00;10513133;28;20044;-75
2023/04/04 22:27:48;;;;;;;1.20;1.10;;;;;;;-0.21;100.00;101793.81;10513130;28;20045;-77
2023/04/04 22:32:50;;;;;;;0.80;0.80;;;;;;;-0.22;100.00;101789.44;10507714;28;20039;-76
2023/04/04 22:37:53;;;;;;;2.30;1.10;;;;;;;-0.12;100.00;101792.75;10508340;28;20052;-78
2023/04/04 22:42:56;;;;;;;0.95;0.90;;;;;;;-0.08;100.00;101793.22;10513357;28;20044;-74
2023/04/04 22:48:00;;;;;;;0.93;0.70;;;;;;;-0.07;99.48;101794.88;10493502;28;20491;-78
2023/04/04 22:53:03;;;;;;;1.40;1.10;;;;;;;0.01;98.88;101797.53;10512053;28;20049;-78
2023/04/04 22:58:05;;;;;;;2.10;1.20;;;;;;;-0.05;98.77;101798.22;10521317;28;20039;-78
2023/04/04 23:03:09;;;;;;;0.90;0.80;;;;;;;-0.05;97.94;101796.38;10497460;28;20420;-78
2023/04/04 23:08:11;;;;;;;1.90;0.90;;;;;;;0.01;97.81;101807.47;10515795;28;20040;-78
2023/04/04 23:13:13;;;;;;;2.58;0.90;;;;;;;0.08;97.67;101803.84;10510293;28;20504;-78
2023/04/04 23:18:19;;;;;;;1.27;0.82;;;;;;;0.07;97.10;101809.44;10501439;28;20052;-77
2023/04/04 23:23:21;;;;;;;2.13;0.95;;;;;;;0.01;96.62;101810.19;10510161;28;20044;-78